Portada
METAR-TAF:

METAR-TAF

Aeroports :

Rivas, Nicaragua

latitud: 11-25N, longitud: 085-50W, altitud: 53 m

Observació

L'informe es va fer fa 45 minuts, a les 18:00 UTC
Vent 6 kt del Nord
Temperatura 29°C
Humitat 70%
Pressió 1012 hPa
Visibilitat 10 km o més
Cel ennuvolat a una alçada de 1500 ft

METAR: MNRS 211800Z 36006KT 9999 BKN015 29/23 Q1012 TCU/NE/E/SE/S/NW

Hora: 12:45 (18:45 UTC)


TAF: manca

Observacions i pronòstics meteorològics de més de 4000 aeroports (METAR i TAF).

Les estacions disponibles són els punts grocs i vermells al mapa.

Posi el ratolí al punt desitjat per veure el nom de l'estació.

Feu clic per veure les observacions i els pronòstics meteorològics.

Per canviar el mapa: feu clic els botons verds amb una creu de color negre per apropar; al botó verd amb un guió per allunyar la imatge; o en les fletxes verdes per a mapes adjacents.


METAR-TAF: